Lucas, Ohio
Current Conditions -  °F | °C
As of 8:52 AM on Thursday 29 Jan 2015 (Local Time) from KMFD Reporting Station
Overcast Overcast  
Wind Chill: 18°   Ceiling: 5500
Heat Index: 31°   Visibility: 10mi
Dew Point: 24°   Wind: 21mph
Humidity: 76%   Direction: 160°SSE
Pressure: 29.84"   Gusts: NA
Location:  40.71°N, 82.42°W
Report Text: KMFD 291352Z 16018KT 10SM FEW018 OVC055 M01/M04 A2984 RMK AO2 PK WND 17026/1314 FZRAE47 SLP119 P0001 T10061044
Loading
Personal Weather Stations






























Interactive Weather Map New forecast layout! Learn more

10-Day Weather Forecast

Advertisements
Track Severe Weather on mobile